Time;durP1;ratioP1;P1;durP2;ratioP2;P2;SDS_P1;SDS_P2;PMS_P1;PMS_P2;Temp;Humidity;BMP_temperature;BMP_pressure;BME280_temperature;BME280_humidity;BME280_pressure;Samples;Min_cycle;Max_cycle;Signal;HPM_P1;HPM_P2
2023/10/28 00:02:20;;;;;;;;;;;;;;;14.67;63.26;98559.31;4962707;28;8448;-84
2023/10/28 00:04:45;;;;;;;;;;;;;;;14.63;62.53;98551.56;4983415;28;6986;-84
2023/10/28 00:07:11;;;;;;;;;;;;;;;14.60;62.96;98551.56;4982961;28;7297;-84
2023/10/28 00:09:37;;;;;;;;;;;;;;;14.56;62.86;98551.53;4993040;28;7257;-84
2023/10/28 00:12:03;;;;;;;;;;;;;;;14.55;63.31;98543.81;4981171;28;8344;-84
2023/10/28 00:14:28;;;;;;;;;;;;;;;14.51;63.05;98549.81;4987722;28;7160;-84
2023/10/28 00:16:54;;;;;;;;;;;;;;;14.50;63.25;98548.09;4963685;28;8375;-84
2023/10/28 00:19:20;;;;;;;;;;;;;;;14.46;63.43;98544.66;4995007;28;7379;-84
2023/10/28 00:21:45;;;;;;;;;;;;;;;14.43;63.42;98544.66;4963693;28;8437;-84
2023/10/28 00:24:11;;;;;;;;;;;;;;;14.41;63.25;98547.22;4981201;28;8514;-84
2023/10/28 00:26:37;;;;;;;;;;;;;;;14.40;63.42;98548.06;4964241;28;8290;-84
2023/10/28 00:29:02;;;;;;;;;;;;;;;14.38;63.19;98543.75;4980226;28;7027;-84
2023/10/28 00:31:28;;;;;;;;;;;;;;;14.36;63.87;98542.91;4961567;28;8719;-84
2023/10/28 00:33:54;;;;;;;;;;;;;;;14.34;63.13;98540.34;4989808;28;7332;-84
2023/10/28 00:36:19;;;;;;;;;;;;;;;14.33;63.73;98548.06;4977669;28;8375;-84
2023/10/28 00:38:45;;;;;;;;;;;;;;;14.30;63.47;98544.63;4970228;28;7172;-84
2023/10/28 00:41:11;;;;;;;;;;;;;;;14.30;63.73;98554.94;4966133;28;7130;-84
2023/10/28 00:43:39;;;;;;;;;;;;;;;14.27;63.45;98538.59;4974322;28;7597;-84
2023/10/28 00:46:07;;;;;;;;;;;;;;;14.29;63.44;98558.38;4977464;28;8061;-84
2023/10/28 00:48:33;;;;;;;;;;;;;;;14.28;63.60;98561.75;4985997;28;6800;-84
2023/10/28 00:51:00;;;;;;;;;;;;;;;14.28;63.33;98559.19;4971688;28;8386;-84
2023/10/28 00:53:26;;;;;;;;;;;;;;;14.28;63.99;98566.91;4975814;28;6950;-84
2023/10/28 00:55:54;;;;;;;;;;;;;;;14.29;63.85;98565.22;4996891;28;8715;-84
2023/10/28 00:58:22;;;;;;;;;;;;;;;14.28;63.52;98556.63;4986487;28;7210;-84
2023/10/28 01:00:48;;;;;;;;;;;;;;;14.30;63.88;98561.78;4986890;28;6780;-84
2023/10/28 01:03:16;;;;;;;;;;;;;;;14.27;64.19;98547.16;4968815;28;7217;-84
2023/10/28 01:05:43;;;;;;;;;;;;;;;14.30;63.69;98552.34;4993145;28;6938;-85
2023/10/28 01:08:09;;;;;;;;;;;;;;;14.30;63.95;98554.06;4981770;28;7162;-85
2023/10/28 01:10:35;;;;;;;;;;;;;;;14.33;63.80;98555.78;4987229;28;7303;-85
2023/10/28 01:13:04;;;;;;;;;;;;;;;14.34;63.52;98552.34;4967060;28;6945;-85
2023/10/28 01:15:30;;;;;;;;;;;;;;;14.39;63.57;98558.34;4986705;28;8930;-85
2023/10/28 01:17:59;;;;;;;;;;;;;;;14.40;63.83;98560.09;4978610;28;6968;-85
2023/10/28 01:20:25;;;;;;;;;;;;;;;14.45;63.61;98566.13;4980574;28;6776;-85
2023/10/28 01:22:51;;;;;;;;;;;;;;;14.46;63.49;98562.69;4977066;28;6764;-85
2023/10/28 01:25:16;;;;;;;;;;;;;;;14.47;63.39;98558.41;4964687;28;6963;-85
2023/10/28 01:27:44;;;;;;;;;;;;;;;14.48;63.97;98553.22;4977887;28;6985;-85
2023/10/28 01:30:14;;;;;;;;;;;;;;;14.49;63.62;98554.97;4969249;28;8591;-85
2023/10/28 01:32:44;;;;;;;;;;;;;;;14.51;63.64;98555.84;4971209;28;6831;-85
2023/10/28 01:35:10;;;;;;;;;;;;;;;14.52;63.31;98559.25;4970599;28;6794;-85
2023/10/28 01:37:37;;;;;;;;;;;;;;;14.54;63.65;98557.56;4987199;28;7372;-85
2023/10/28 01:40:12;;;;;;;;;;;;;;;14.55;63.58;98564.44;4967514;28;7209;-85
2023/10/28 01:42:39;;;;;;;;;;;;;;;14.54;62.91;98563.56;4977988;28;7265;-85
2023/10/28 01:45:06;;;;;;;;;;;;;;;14.53;64.00;98567.00;4971977;28;7149;-85
2023/10/28 01:47:32;;;;;;;;;;;;;;;14.51;63.29;98571.31;4977202;28;6804;-85
2023/10/28 01:49:58;;;;;;;;;;;;;;;14.51;63.24;98568.72;4965600;28;7272;-85
2023/10/28 01:52:25;;;;;;;;;;;;;;;14.46;63.22;98565.25;4971006;28;6801;-85
2023/10/28 01:54:53;;;;;;;;;;;;;;;14.49;63.75;98575.59;4981935;28;6959;-85
2023/10/28 01:57:19;;;;;;;;;;;;;;;14.48;63.84;98573.84;4979126;28;6784;-85
2023/10/28 01:59:45;;;;;;;;;;;;;;;14.46;63.55;98567.84;4978872;28;8437;-85
2023/10/28 02:02:11;;;;;;;;;;;;;;;14.45;63.97;98576.44;4988185;28;6971;-85
2023/10/28 02:04:37;;;;;;;;;;;;;;;14.43;63.32;98573.84;4967688;28;7260;-85
2023/10/28 02:07:04;;;;;;;;;;;;;;;14.40;63.98;98570.41;4975425;28;7285;-84
2023/10/28 02:09:33;;;;;;;;;;;;;;;14.39;63.98;98568.66;4989169;28;7054;-84
2023/10/28 02:12:02;;;;;;;;;;;;;;;14.37;63.64;98572.97;4980419;28;6922;-85
2023/10/28 02:14:28;;;;;;;;;;;;;;;14.36;64.03;98568.66;4964225;28;7395;-84
2023/10/28 02:16:56;;;;;;;;;;;;;;;14.34;64.00;98570.38;4977590;28;7158;-84
2023/10/28 02:19:22;;;;;;;;;;;;;;;14.34;64.13;98571.25;4970268;28;7167;-84
2023/10/28 02:21:50;;;;;;;;;;;;;;;14.33;63.80;98568.66;4976297;28;7233;-85
2023/10/28 02:24:19;;;;;;;;;;;;;;;14.32;63.91;98575.53;4976003;28;7277;-85
2023/10/28 02:26:47;;;;;;;;;;;;;;;14.29;64.26;98563.50;4962412;28;6989;-85
2023/10/28 02:29:13;;;;;;;;;;;;;;;14.25;63.87;98556.63;4979505;28;8531;-85
2023/10/28 02:31:39;;;;;;;;;;;;;;;14.25;63.54;98566.06;4962484;28;8881;-85
2023/10/28 02:34:08;;;;;;;;;;;;;;;14.25;63.57;98560.94;4990836;28;6944;-85
2023/10/28 02:36:34;;;;;;;;;;;;;;;14.23;63.66;98558.34;4982554;28;7135;-85
2023/10/28 02:39:00;;;;;;;;;;;;;;;14.24;63.92;98554.91;4993740;28;7286;-85
2023/10/28 02:41:26;;;;;;;;;;;;;;;14.22;63.36;98550.59;4965803;28;7141;-85
2023/10/28 02:43:52;;;;;;;;;;;;;;;14.20;63.24;98552.31;4962305;28;6806;-85
2023/10/28 02:46:22;;;;;;;;;;;;;;;14.16;63.29;98560.03;4988700;28;6838;-85
2023/10/28 02:48:48;;;;;;;;;;;;;;;14.10;63.09;98553.97;4962000;28;7314;-85
2023/10/28 02:51:14;;;;;;;;;;;;;;;14.06;63.50;98558.28;4963171;28;7185;-85
2023/10/28 02:53:40;;;;;;;;;;;;;;;14.01;63.31;98563.41;4969392;28;7050;-85
2023/10/28 02:56:06;;;;;;;;;;;;;;;13.96;63.02;98570.22;4985414;28;7117;-86
2023/10/28 02:58:31;;;;;;;;;;;;;;;13.90;63.49;98559.88;4973357;28;8510;-85
2023/10/28 03:01:06;;;;;;;;;;;;;;;13.85;63.41;98553.88;4977385;28;7174;-85
2023/10/28 03:03:32;;;;;;;;;;;;;;;13.79;63.10;98552.13;4985234;28;8506;-85
2023/10/28 03:05:57;;;;;;;;;;;;;;;13.77;62.94;98564.13;4978905;28;7179;-85
2023/10/28 03:08:23;;;;;;;;;;;;;;;13.71;62.94;98559.81;4964964;28;7003;-86
2023/10/28 03:10:49;;;;;;;;;;;;;;;13.69;63.66;98568.38;4959361;28;6962;-85
2023/10/28 03:13:15;;;;;;;;;;;;;;;13.64;63.86;98558.06;4969489;28;7124;-85
2023/10/28 03:15:40;;;;;;;;;;;;;;;13.63;63.55;98561.47;4971571;28;8627;-85
2023/10/28 03:18:06;;;;;;;;;;;;;;;13.62;63.69;98557.19;4959605;28;6958;-85
2023/10/28 03:20:32;;;;;;;;;;;;;;;13.63;63.72;98561.47;4980035;28;8381;-85
2023/10/28 03:22:59;;;;;;;;;;;;;;;13.64;63.86;98555.47;4973700;28;7129;-85
2023/10/28 03:25:27;;;;;;;;;;;;;;;13.64;63.45;98552.91;4973928;28;6855;-85
2023/10/28 03:27:52;;;;;;;;;;;;;;;13.68;63.38;98554.63;4964000;28;7057;-85
2023/10/28 03:30:18;;;;;;;;;;;;;;;13.66;63.02;98548.63;4961365;28;6913;-85
2023/10/28 03:32:44;;;;;;;;;;;;;;;13.67;63.17;98547.78;4955282;28;8388;-84
2023/10/28 03:35:09;;;;;;;;;;;;;;;13.67;63.13;98552.06;4984167;28;6760;-84
2023/10/28 03:37:37;;;;;;;;;;;;;;;13.64;63.39;98547.75;4981162;28;7140;-84
2023/10/28 03:40:04;;;;;;;;;;;;;;;13.66;63.73;98546.03;4960425;28;7192;-84
2023/10/28 03:42:30;;;;;;;;;;;;;;;13.69;63.42;98545.22;4961060;28;7337;-84
2023/10/28 03:44:56;;;;;;;;;;;;;;;13.71;63.47;98543.50;4956152;28;6949;-83
2023/10/28 03:47:22;;;;;;;;;;;;;;;13.73;63.58;98545.25;4958648;28;8472;-83
2023/10/28 03:49:48;;;;;;;;;;;;;;;13.77;63.82;98546.13;4963181;28;7111;-84
2023/10/28 03:52:13;;;;;;;;;;;;;;;13.82;63.88;98546.16;4980882;28;7268;-83
2023/10/28 03:54:39;;;;;;;;;;;;;;;13.85;63.04;98546.16;4980757;28;6943;-83
2023/10/28 03:57:05;;;;;;;;;;;;;;;13.88;63.53;98556.44;4998449;28;8003;-83
2023/10/28 03:59:30;;;;;;;;;;;;;;;13.93;63.91;98554.78;4973331;28;6923;-83
2023/10/28 04:01:58;;;;;;;;;;;;;;;13.96;63.14;98544.47;4974903;28;8294;-84
2023/10/28 04:04:24;;;;;;;;;;;;;;;14.01;63.95;98547.06;4968500;28;9084;-84
2023/10/28 04:06:53;;;;;;;;;;;;;;;14.03;63.97;98546.22;4983719;28;7338;-84
2023/10/28 04:09:19;;;;;;;;;;;;;;;14.11;63.18;98553.16;4963173;28;7416;-84
2023/10/28 04:11:45;;;;;;;;;;;;;;;14.13;63.42;98551.44;4959632;28;6967;-84
2023/10/28 04:14:10;;;;;;;;;;;;;;;14.17;63.05;98548.00;4992540;28;7401;-84
2023/10/28 04:16:36;;;;;;;;;;;;;;;14.18;63.30;98539.41;4977664;28;6947;-84
2023/10/28 04:19:02;;;;;;;;;;;;;;;14.23;63.16;98535.13;4977701;28;7023;-84
2023/10/28 04:21:29;;;;;;;;;;;;;;;14.25;62.99;98538.56;4974599;28;7095;-84
2023/10/28 04:24:01;;;;;;;;;;;;;;;14.28;62.98;98536.00;4997196;28;7230;-83
2023/10/28 04:26:27;;;;;;;;;;;;;;;14.28;63.04;98536.00;4987624;28;7057;-84
2023/10/28 04:28:53;;;;;;;;;;;;;;;14.33;63.70;98535.16;4976907;28;8371;-84
2023/10/28 04:31:19;;;;;;;;;;;;;;;14.35;62.71;98531.75;4969191;28;8306;-84
2023/10/28 04:33:45;;;;;;;;;;;;;;;14.39;62.84;98530.88;4996497;28;6796;-84
2023/10/28 04:36:11;;;;;;;;;;;;;;;14.38;63.03;98526.59;4968361;28;6972;-84
2023/10/28 04:38:39;;;;;;;;;;;;;;;14.41;63.27;98524.00;4957863;28;8547;-84
2023/10/28 04:41:08;;;;;;;;;;;;;;;14.41;62.76;98515.44;4982041;28;7946;-84
2023/10/28 04:43:34;;;;;;;;;;;;;;;14.42;62.74;98520.56;4966740;28;6991;-84
2023/10/28 04:46:00;;;;;;;;;;;;;;;14.42;62.59;98528.31;4961018;28;8368;-84
2023/10/28 04:48:28;;;;;;;;;;;;;;;14.40;62.74;98524.03;4980698;28;6835;-84
2023/10/28 04:50:55;;;;;;;;;;;;;;;14.39;62.73;98527.44;4985269;28;7133;-84
2023/10/28 04:53:22;;;;;;;;;;;;;;;14.36;62.78;98524.88;4963310;28;8437;-86
2023/10/28 04:55:51;;;;;;;;;;;;;;;14.34;63.03;98522.31;4963951;28;6976;-86
2023/10/28 04:58:24;;;;;;;;;;;;;;;14.36;63.24;98525.75;4974334;28;7125;-85
2023/10/28 05:00:50;;;;;;;;;;;;;;;14.37;63.11;98517.16;4979493;28;7416;-83
2023/10/28 05:03:16;;;;;;;;;;;;;;;14.42;62.87;98517.16;4980117;28;7280;-86
2023/10/28 05:05:43;;;;;;;;;;;;;;;14.41;62.54;98518.00;4971742;28;6754;-85
2023/10/28 05:08:09;;;;;;;;;;;;;;;14.40;62.86;98513.72;4961584;28;7122;-85
2023/10/28 05:10:36;;;;;;;;;;;;;;;14.38;62.49;98511.13;4970793;28;6984;-85
2023/10/28 05:13:03;;;;;;;;;;;;;;;14.33;62.09;98506.81;4978857;28;6938;-86
2023/10/28 05:15:29;;;;;;;;;;;;;;;14.27;61.73;98510.25;4965325;28;6814;-85
2023/10/28 05:17:54;;;;;;;;;;;;;;;14.20;61.79;98511.09;4980314;28;7195;-85
2023/10/28 05:20:21;;;;;;;;;;;;;;;14.12;62.19;98511.91;4970595;28;8650;-85
2023/10/28 05:22:48;;;;;;;;;;;;;;;14.06;61.77;98511.03;4971275;28;8491;-86
2023/10/28 05:25:14;;;;;;;;;;;;;;;14.01;62.03;98506.75;4989317;28;8452;-87
2023/10/28 05:27:40;;;;;;;;;;;;;;;14.00;62.26;98515.31;4974342;28;7150;-88
2023/10/28 05:30:06;;;;;;;;;;;;;;;14.02;63.01;98516.19;4966947;28;7170;-86
2023/10/28 05:32:32;;;;;;;;;;;;;;;14.03;62.97;98509.31;4971804;28;6722;-85
2023/10/28 05:34:59;;;;;;;;;;;;;;;14.10;62.63;98526.50;4960428;28;8455;-86
2023/10/28 05:37:27;;;;;;;;;;;;;;;14.13;62.97;98516.19;4970964;28;7160;-86
2023/10/28 05:39:56;;;;;;;;;;;;;;;14.20;63.03;98522.25;4977954;28;8509;-85
2023/10/28 05:42:23;;;;;;;;;;;;;;;14.28;63.77;98524.84;4958826;28;7183;-86
2023/10/28 05:44:50;;;;;;;;;;;;;;;14.34;63.48;98517.16;4972587;28;8538;-86
2023/10/28 05:47:16;;;;;;;;;;;;;;;14.40;63.03;98516.28;4973259;28;8280;-86
2023/10/28 05:49:43;;;;;;;;;;;;;;;14.50;62.74;98524.91;4987112;28;8501;-86
2023/10/28 05:52:09;;;;;;;;;;;;;;;14.54;63.10;98529.22;4986872;28;8573;-85
2023/10/28 05:54:52;;;;;;;;;;;;;;;14.58;63.31;98525.78;4991957;28;7178;-86
2023/10/28 05:57:18;;;;;;;;;;;;;;;14.64;63.06;98525.78;4986762;28;7059;-86
2023/10/28 05:59:43;;;;;;;;;;;;;;;14.70;63.03;98528.34;4971662;28;7108;-82
2023/10/28 06:02:09;;;;;;;;;;;;;;;14.74;62.85;98518.09;4976807;28;8620;-82
2023/10/28 06:04:35;;;;;;;;;;;;;;;14.79;62.80;98517.25;4979120;28;6788;-82
2023/10/28 06:07:03;;;;;;;;;;;;;;;14.81;62.67;98520.69;4984412;28;8770;-86
2023/10/28 06:09:29;;;;;;;;;;;;;;;14.86;63.15;98533.56;4970013;28;6975;-85
2023/10/28 06:11:54;;;;;;;;;;;;;;;14.89;62.84;98527.56;4970813;28;8632;-84
2023/10/28 06:14:21;;;;;;;;;;;;;;;14.96;62.36;98531.84;4987886;28;6980;-83
2023/10/28 06:16:47;;;;;;;;;;;;;;;15.00;63.10;98533.59;4971604;28;7131;-83
2023/10/28 06:19:14;;;;;;;;;;;;;;;15.06;62.68;98541.28;4984823;28;6927;-83
2023/10/28 06:21:40;;;;;;;;;;;;;;;15.09;62.91;98543.03;4992635;28;7150;-84
2023/10/28 06:24:08;;;;;;;;;;;;;;;15.12;62.62;98541.31;4980645;28;6762;-83
2023/10/28 06:26:34;;;;;;;;;;;;;;;15.15;62.54;98545.63;4971467;28;6939;-83
2023/10/28 06:29:00;;;;;;;;;;;;;;;15.17;63.03;98543.88;4972541;28;8422;-84
2023/10/28 06:31:32;;;;;;;;;;;;;;;15.24;62.16;98552.47;4982756;28;7211;-83
2023/10/28 06:34:00;;;;;;;;;;;;;;;15.24;62.21;98550.78;4967121;28;7031;-83
2023/10/28 06:36:28;;;;;;;;;;;;;;;15.31;62.03;98554.19;4972613;28;6967;-83
2023/10/28 06:38:56;;;;;;;;;;;;;;;15.29;61.97;98540.44;4973308;28;6944;-83
2023/10/28 06:41:22;;;;;;;;;;;;;;;15.32;61.74;98550.75;4970343;28;7469;-84
2023/10/28 06:43:48;;;;;;;;;;;;;;;15.28;61.87;98552.47;4978045;28;6784;-83
2023/10/28 06:46:18;;;;;;;;;;;;;;;15.26;61.81;98551.63;4985473;28;8458;-83
2023/10/28 06:48:44;;;;;;;;;;;;;;;15.24;61.99;98547.31;4972407;28;6976;-84
2023/10/28 06:51:12;;;;;;;;;;;;;;;15.23;61.82;98549.06;4977327;28;6772;-83
2023/10/28 06:53:40;;;;;;;;;;;;;;;15.24;62.07;98560.22;4967785;28;8397;-83
2023/10/28 06:56:07;;;;;;;;;;;;;;;15.23;61.99;98553.34;4984340;28;8523;-83
2023/10/28 06:58:33;;;;;;;;;;;;;;;15.24;61.98;98560.22;4969253;28;6982;-84
2023/10/28 07:01:04;;;;;;;;;;;;;;;15.26;62.24;98564.53;4964378;28;8564;-84
2023/10/28 07:03:30;;;;;;;;;;;;;;;15.29;62.14;98563.69;4981009;28;8423;-83
2023/10/28 07:05:56;;;;;;;;;;;;;;;15.32;62.47;98565.41;4978375;28;6761;-83
2023/10/28 07:08:24;;;;;;;;;;;;;;;15.34;62.39;98568.84;4986321;28;6771;-83
2023/10/28 07:10:51;;;;;;;;;;;;;;;15.37;62.13;98561.94;4987211;28;7985;-83
2023/10/28 07:13:16;;;;;;;;;;;;;;;15.41;62.37;98565.41;4973841;28;7223;-85
2023/10/28 07:15:42;;;;;;;;;;;;;;;15.48;62.50;98574.00;4972173;28;6960;-85
2023/10/28 07:18:08;;;;;;;;;;;;;;;15.55;62.08;98573.13;4961524;28;6955;-83
2023/10/28 07:20:40;;;;;;;;;;;;;;;15.62;62.24;98573.97;4970744;28;6981;-84
2023/10/28 07:23:06;;;;;;;;;;;;;;;15.68;62.06;98572.22;4971936;28;7158;-84
2023/10/28 07:25:32;;;;;;;;;;;;;;;15.74;62.10;98567.88;4963347;28;6952;-85
2023/10/28 07:27:57;;;;;;;;;;;;;;;15.79;62.20;98573.91;4987465;28;8035;-85
2023/10/28 07:30:24;;;;;;;;;;;;;;;15.84;61.79;98579.94;4968415;28;7038;-84
2023/10/28 07:32:52;;;;;;;;;;;;;;;15.87;61.70;98579.94;4976697;28;7086;-84
2023/10/28 07:35:19;;;;;;;;;;;;;;;15.90;61.73;98585.09;4998172;28;7192;-84
2023/10/28 07:37:44;;;;;;;;;;;;;;;15.92;62.06;98583.38;4979509;28;6847;-84
2023/10/28 07:40:12;;;;;;;;;;;;;;;15.95;61.87;98592.84;4963433;28;7200;-84
2023/10/28 07:42:40;;;;;;;;;;;;;;;16.00;61.72;98593.72;4963371;28;6961;-84
2023/10/28 07:45:07;;;;;;;;;;;;;;;16.03;61.96;98592.81;4960969;28;9844;-86
2023/10/28 07:47:32;;;;;;;;;;;;;;;16.05;61.78;98591.94;4978997;28;6958;-86
2023/10/28 07:49:58;;;;;;;;;;;;;;;16.09;61.67;98587.63;4970498;28;6971;-86
2023/10/28 07:52:23;;;;;;;;;;;;;;;16.12;61.62;98586.78;4971612;28;7041;-87
2023/10/28 07:54:49;;;;;;;;;;;;;;;16.15;61.52;98591.91;4985230;28;8401;-86
2023/10/28 07:58:55;;;;;;;;;;;;;;;;;;;;;
2023/10/28 08:01:53;;;;;;;;;;;;;;;16.22;61.17;98597.09;4969508;28;6917;-91
2023/10/28 08:04:19;;;;;;;;;;;;;;;16.26;61.08;98591.88;4976576;23;8337;-78
2023/10/28 08:06:46;;;;;;;;;;;;;;;16.29;60.98;98594.44;4982456;28;12446;-76
2023/10/28 08:09:12;;;;;;;;;;;;;;;16.32;60.85;98602.19;5006336;28;6952;-77
2023/10/28 08:11:38;;;;;;;;;;;;;;;16.35;60.89;98597.88;4976110;28;7061;-75
2023/10/28 08:14:04;;;;;;;;;;;;;;;16.42;61.00;98606.47;5005900;28;7742;-76
2023/10/28 08:16:29;;;;;;;;;;;;;;;16.46;61.08;98599.53;4997838;28;7016;-78
2023/10/28 08:18:55;;;;;;;;;;;;;;;16.52;61.06;98602.97;4976024;28;7459;-79
2023/10/28 08:21:21;;;;;;;;;;;;;;;16.59;61.08;98601.22;4973577;28;6768;-78
2023/10/28 08:23:47;;;;;;;;;;;;;;;16.66;60.67;98609.78;4972361;28;6796;-77
2023/10/28 08:26:17;;;;;;;;;;;;;;;16.71;60.86;98610.63;4957167;28;6972;-78
2023/10/28 08:28:43;;;;;;;;;;;;;;;16.76;60.25;98616.63;4980726;28;7003;-77
2023/10/28 08:31:09;;;;;;;;;;;;;;;16.80;60.26;98623.53;4957489;28;7152;-78
2023/10/28 08:33:36;;;;;;;;;;;;;;;16.84;60.15;98636.44;4974978;28;6946;-79
2023/10/28 08:36:01;;;;;;;;;;;;;;;16.84;60.05;98629.50;4958387;28;7778;-79
2023/10/28 08:38:28;;;;;;;;;;;;;;;16.86;59.69;98634.69;4974275;28;7051;-79
2023/10/28 08:40:54;;;;;;;;;;;;;;;16.88;59.89;98635.53;4970996;28;7710;-77
2023/10/28 08:43:20;;;;;;;;;;;;;;;16.90;60.10;98644.13;4986869;28;7829;-77
2023/10/28 08:45:48;;;;;;;;;;;;;;;16.91;59.93;98636.38;4974816;28;6951;-78
2023/10/28 08:48:18;;;;;;;;;;;;;;;16.97;59.59;98645.81;4972746;28;6877;-77
2023/10/28 08:50:53;;;;;;;;;;;;;;;17.01;59.32;98641.53;4972779;28;7222;-77
2023/10/28 08:53:21;;;;;;;;;;;;;;;17.06;59.45;98632.84;4976621;28;6799;-76
2023/10/28 08:55:49;;;;;;;;;;;;;;;17.12;59.47;98641.47;4980382;28;6804;-77
2023/10/28 08:58:18;;;;;;;;;;;;;;;17.17;59.57;98652.63;4978196;28;7261;-78
2023/10/28 09:00:50;;;;;;;;;;;;;;;17.22;58.66;98656.06;4972982;28;7099;-78
2023/10/28 09:03:22;;;;;;;;;;;;;;;17.26;59.29;98660.34;4960664;28;8272;-76
2023/10/28 09:05:52;;;;;;;;;;;;;;;17.31;58.97;98657.72;4961705;28;6980;-78
2023/10/28 09:08:23;;;;;;;;;;;;;;;17.35;58.79;98657.69;4975626;28;6792;-76
2023/10/28 09:10:49;;;;;;;;;;;;;;;17.41;57.71;98655.94;4980271;28;6808;-74
2023/10/28 09:13:15;;;;;;;;;;;;;;;17.43;56.87;98649.88;4980283;28;6795;-73
2023/10/28 09:15:42;;;;;;;;;;;;;;;17.47;57.60;98663.63;4978777;28;6984;-73
2023/10/28 09:18:10;;;;;;;;;;;;;;;17.51;57.19;98647.22;4978300;28;6843;-73
2023/10/28 09:20:41;;;;;;;;;;;;;;;17.56;57.64;98645.41;4984614;28;7338;-74
2023/10/28 09:23:07;;;;;;;;;;;;;;;17.61;57.29;98643.66;4976542;28;6804;-73
2023/10/28 09:25:34;;;;;;;;;;;;;;;17.69;57.53;98635.81;4974524;28;6780;-73
2023/10/28 09:28:03;;;;;;;;;;;;;;;17.77;56.10;98649.56;4982955;28;6973;-73
2023/10/28 09:30:28;;;;;;;;;;;;;;;17.88;55.93;98641.69;4972570;28;6804;-74
2023/10/28 09:32:55;;;;;;;;;;;;;;;17.95;55.03;98652.84;4971893;28;6780;-74
2023/10/28 09:35:23;;;;;;;;;;;;;;;17.99;55.87;98643.31;4965251;28;6976;-74
2023/10/28 09:37:49;;;;;;;;;;;;;;;18.00;55.73;98648.47;4978401;28;7061;-73
2023/10/28 09:40:14;;;;;;;;;;;;;;;18.04;56.24;98644.13;4973990;28;6810;-74
2023/10/28 09:42:43;;;;;;;;;;;;;;;18.10;55.67;98653.56;4975037;28;6771;-74
2023/10/28 09:45:10;;;;;;;;;;;;;;;18.18;55.61;98650.03;4977654;28;6808;-74
2023/10/28 09:48:05;;;;;;;;;;;;;;;18.28;55.30;98657.72;4959375;28;7047;-75
2023/10/28 09:50:38;;;;;;;;;;;;;;;18.41;55.42;98658.44;4976211;28;7415;-74
2023/10/28 09:53:03;;;;;;;;;;;;;;;18.55;55.11;98655.69;4966459;28;6850;-74
2023/10/28 09:55:34;;;;;;;;;;;;;;;18.78;54.15;98657.94;4974199;28;6855;-74
2023/10/28 09:58:15;;;;;;;;;;;;;;;19.39;52.82;98662.31;4962518;28;7001;-74
2023/10/28 10:00:44;;;;;;;;;;;;;;;20.20;49.80;98660.94;4976179;28;7257;-74
2023/10/28 10:03:58;;;;;;;;;;;;;;;20.81;47.34;98650.16;4977067;28;6812;-74
2023/10/28 10:06:25;;;;;;;;;;;;;;;21.42;46.78;98656.63;4968350;28;7094;-74
2023/10/28 10:08:52;;;;;;;;;;;;;;;22.01;46.79;98658.59;4981509;28;6934;-74
2023/10/28 10:11:23;;;;;;;;;;;;;;;22.58;45.26;98642.28;4976662;28;6776;-74
2023/10/28 10:13:49;;;;;;;;;;;;;;;23.04;44.74;98655.69;4974299;28;6804;-75
2023/10/28 10:16:53;;;;;;;;;;;;;;;23.41;42.73;98648.47;4976887;28;6794;-75
2023/10/28 10:19:27;;;;;;;;;;;;;;;23.65;41.95;98648.56;4990531;28;7155;-74
2023/10/28 10:21:53;;;;;;;;;;;;;;;23.51;41.98;98638.56;4957957;28;6995;-77
2023/10/28 10:24:20;;;;;;;;;;;;;;;23.07;42.36;98650.38;4958872;28;7248;-79
2023/10/28 10:26:57;;;;;;;;;;;;;;;23.12;42.86;98653.69;4974412;28;6796;-79
2023/10/28 10:29:26;;;;;;;;;;;;;;;23.46;42.72;98643.09;4975826;28;6811;-79
2023/10/28 10:31:53;;;;;;;;;;;;;;;23.82;41.88;98648.84;4981463;28;7434;-78
2023/10/28 10:34:45;;;;;;;;;;;;;;;23.96;41.77;98653.59;4967199;28;8304;-79
2023/10/28 10:37:23;;;;;;;;;;;;;;;23.51;41.70;98642.00;4983378;28;6888;-80
2023/10/28 10:39:48;;;;;;;;;;;;;;;22.83;42.29;98660.69;4980956;28;7013;-77
2023/10/28 10:42:14;;;;;;;;;;;;;;;22.27;42.86;98651.81;4993607;28;6964;-79
2023/10/28 10:44:41;;;;;;;;;;;;;;;21.90;43.12;98650.19;4976009;28;7833;-77
2023/10/28 10:47:09;;;;;;;;;;;;;;;21.49;44.01;98642.53;4982521;28;6947;-76
2023/10/28 10:49:38;;;;;;;;;;;;;;;21.13;44.40;98652.94;4973772;28;7102;-76
2023/10/28 10:52:05;;;;;;;;;;;;;;;21.12;45.16;98646.03;4968974;28;7797;-74
2023/10/28 10:54:38;;;;;;;;;;;;;;;21.67;45.58;98635.13;4970365;28;6776;-80
2023/10/28 10:57:08;;;;;;;;;;;;;;;22.55;44.67;98638.00;4977086;28;6816;-77
2023/10/28 10:59:38;;;;;;;;;;;;;;;23.34;42.71;98633.91;4981633;28;6859;-76
2023/10/28 11:02:04;;;;;;;;;;;;;;;23.83;41.43;98634.00;4975732;28;7185;-80
2023/10/28 11:04:34;;;;;;;;;;;;;;;24.23;40.67;98629.97;4971229;28;6859;-80
2023/10/28 11:07:02;;;;;;;;;;;;;;;24.58;39.77;98631.34;4976400;28;6979;-77
2023/10/28 11:09:28;;;;;;;;;;;;;;;24.82;39.95;98619.97;4989511;28;6899;-78
2023/10/28 11:11:54;;;;;;;;;;;;;;;24.99;39.51;98621.03;4976841;28;7076;-77
2023/10/28 11:14:20;;;;;;;;;;;;;;;25.19;39.17;98619.38;4977023;28;7513;-79
2023/10/28 11:16:46;;;;;;;;;;;;;;;25.36;39.18;98616.09;4964718;28;7178;-76
2023/10/28 11:19:12;;;;;;;;;;;;;;;25.58;38.83;98621.28;4978366;28;7922;-75
2023/10/28 11:21:40;;;;;;;;;;;;;;;25.77;37.93;98618.75;4976412;28;6968;-80
2023/10/28 11:24:09;;;;;;;;;;;;;;;25.90;37.61;98624.31;4990987;28;7286;-77
2023/10/28 11:26:36;;;;;;;;;;;;;;;25.60;37.93;98622.09;4959840;28;7079;-79
2023/10/28 11:29:03;;;;;;;;;;;;;;;24.95;38.34;98624.72;4993791;28;8257;-80
2023/10/28 11:31:30;;;;;;;;;;;;;;;24.27;39.02;98621.13;4981402;28;7186;-76
2023/10/28 11:34:01;;;;;;;;;;;;;;;23.46;39.40;98635.25;4958124;28;7414;-79
2023/10/28 11:36:28;;;;;;;;;;;;;;;22.67;40.48;98635.94;4975573;28;8547;-80
2023/10/28 11:38:55;;;;;;;;;;;;;;;22.24;41.48;98631.03;4980180;28;6804;-79
2023/10/28 11:41:22;;;;;;;;;;;;;;;22.03;42.12;98630.75;4979730;28;9339;-79
2023/10/28 11:43:50;;;;;;;;;;;;;;;22.09;41.97;98631.44;4981534;28;6808;-79
2023/10/28 11:46:16;;;;;;;;;;;;;;;22.18;41.44;98625.97;4969530;28;7291;-79
2023/10/28 11:48:45;;;;;;;;;;;;;;;22.29;41.79;98636.13;4973051;28;7006;-79
2023/10/28 11:51:14;;;;;;;;;;;;;;;;;;4978152;28;6896;-77
2023/10/28 11:53:47;;;;;;;;;;;;;;;22.43;40.44;98638.34;4975099;28;6816;-79
2023/10/28 11:56:19;;;;;;;;;;;;;;;22.64;41.11;98643.84;4981368;28;6804;-79
2023/10/28 11:58:45;;;;;;;;;;;;;;;22.68;40.36;98637.63;4981003;28;7791;-78
2023/10/28 12:01:10;;;;;;;;;;;;;;;22.34;40.69;98645.53;4957771;28;6941;-76
2023/10/28 12:03:36;;;;;;;;;;;;;;;22.00;41.80;98643.00;4978372;28;6866;-78
2023/10/28 12:06:02;;;;;;;;;;;;;;;21.69;41.84;98641.22;4975011;28;6780;-78
2023/10/28 12:08:27;;;;;;;;;;;;;;;21.44;42.13;98653.09;4974916;28;6864;-78
2023/10/28 12:10:53;;;;;;;;;;;;;;;21.20;42.73;98654.53;4975694;28;7320;-76
2023/10/28 12:13:19;;;;;;;;;;;;;;;21.00;42.97;98647.16;4972265;28;6780;-78
2023/10/28 12:15:45;;;;;;;;;;;;;;;20.79;43.56;98657.13;4975706;28;6796;-78
2023/10/28 12:18:11;;;;;;;;;;;;;;;20.64;43.30;98650.53;4970891;28;7228;-79
2023/10/28 12:20:38;;;;;;;;;;;;;;;20.49;44.05;98669.91;4981143;28;6816;-78
2023/10/28 12:23:04;;;;;;;;;;;;;;;20.34;43.67;98669.31;4972990;28;6800;-79
2023/10/28 12:25:31;;;;;;;;;;;;;;;20.22;43.94;98679.97;4974648;28;6800;-77
2023/10/28 12:27:57;;;;;;;;;;;;;;;20.09;44.38;98680.22;4991542;28;7192;-77
2023/10/28 12:30:23;;;;;;;;;;;;;;;19.96;45.06;98678.69;4987613;28;7068;-78
2023/10/28 12:32:50;;;;;;;;;;;;;;;19.91;45.41;98685.72;4974577;28;6862;-79
2023/10/28 12:35:17;;;;;;;;;;;;;;;19.88;45.61;98685.75;4971997;28;6796;-78
2023/10/28 12:37:43;;;;;;;;;;;;;;;19.77;46.14;98681.59;4973936;28;7195;-79
2023/10/28 12:40:09;;;;;;;;;;;;;;;19.64;46.28;98680.09;4974732;28;6939;-76
2023/10/28 12:42:36;;;;;;;;;;;;;;;19.49;47.05;98687.25;4979115;28;7225;-73
2023/10/28 12:45:09;;;;;;;;;;;;;;;19.37;47.04;98688.31;4978271;28;6830;-74
2023/10/28 12:47:35;;;;;;;;;;;;;;;19.31;47.96;98692.72;4981291;28;7189;-73
2023/10/28 12:50:03;;;;;;;;;;;;;;;19.27;48.21;98700.56;4962708;28;6920;-73
2023/10/28 12:52:31;;;;;;;;;;;;;;;19.10;47.64;98702.53;4980309;28;6878;-73
2023/10/28 12:55:00;;;;;;;;;;;;;;;18.85;48.86;98690.72;4976828;28;6986;-74
2023/10/28 12:57:26;;;;;;;;;;;;;;;18.70;50.20;98689.19;4976345;28;6800;-73
2023/10/28 12:59:52;;;;;;;;;;;;;;;18.57;50.90;98692.84;4993298;28;6832;-73
2023/10/28 13:02:17;;;;;;;;;;;;;;;18.50;50.91;98688.59;4960215;28;6784;-73